Capitol Logistics 362


KPDX
Portland International Airport
Portland, Oregon, US
KSEA
Seattle-Tacoma International Airport
Seattle, Washington, US

Activity Log

Date Flight Route Aircraft Duration
06/19/2019 CPX362 COUGA KRIEG HAWKZ7 B763 0h 43m
03/21/2019 CPX362 COUGA KRIEG HAWKZ7 B763 0h 39m
03/06/2019 CPX362 COUGA KRIEG HAWKZ7 B763 0h 40m
01/31/2019 CPX362 COUGA KRIEG HAWKZ7 B763 0h 47m
01/31/2019 CPX362 COUGA KRIEG HAWKZ7 B763 0h 43m
01/28/2019 CPX362 COUGA KRIEG HAWKZ7 B763 0h 41m

Route Details

Aircraft Information
Primary: Boeing 767-300BDSF
Backup: Not Available
Route Data
Distance: 112nm
Sched. Duration: 1h 00m
Avg. Duration: 0h 42m (-58m)
Times Flown: 6
Recm'd Route: COUGA KRIEG HAWKZ7
Planned Altitude: 20,000ft
Origin Wx: KPDX 021610Z 18004KT 10SM SCT024 OVC049 16/11 A3006 RMK AO2 T01560106
Dest. Wx: KSEA 021600Z 18013KT 10SM OVC028 14/09 A3000 RMK AO2 T01390089
Notes:

Financial History
Total Freight: 570,479lbs
Average Load: 95,080lbs/flt
Fuel Used: 48,471lbs
Avg. Fuel Used: 8,079lbs/flt
Fuel Expense: $42,170
Avg. Fuel Expense: $7,028
Avg. Fuel Cost: $0.87/lbs
Total Gross Income: $707,394
Pilot Pay: $1,214
Total Expenses: $76,711
Total Revenue: $587,597
Average Revenue: $117,898.99